sensor_id;sensor_type;location;lat;lon;timestamp;P1;durP1;ratioP1;P2;durP2;ratioP2
23322;SDS011;11833;52.554;13.554;2023-06-26T00:00:33;8.15;;;5.93;;
23322;SDS011;11833;52.554;13.554;2023-06-26T00:02:59;7.45;;;5.90;;
23322;SDS011;11833;52.554;13.554;2023-06-26T00:05:25;7.75;;;6.88;;
23322;SDS011;11833;52.554;13.554;2023-06-26T00:07:52;7.10;;;6.32;;
23322;SDS011;11833;52.554;13.554;2023-06-26T00:10:18;7.28;;;6.57;;
23322;SDS011;11833;52.554;13.554;2023-06-26T00:12:44;6.80;;;6.03;;
23322;SDS011;11833;52.554;13.554;2023-06-26T00:15:10;7.68;;;6.05;;
23322;SDS011;11833;52.554;13.554;2023-06-26T00:17:37;8.10;;;6.43;;
23322;SDS011;11833;52.554;13.554;2023-06-26T00:20:03;8.27;;;6.45;;
23322;SDS011;11833;52.554;13.554;2023-06-26T00:22:33;8.15;;;6.88;;
23322;SDS011;11833;52.554;13.554;2023-06-26T00:24:59;7.70;;;6.90;;
23322;SDS011;11833;52.554;13.554;2023-06-26T00:27:25;7.60;;;6.22;;
23322;SDS011;11833;52.554;13.554;2023-06-26T00:29:51;7.82;;;5.90;;
23322;SDS011;11833;52.554;13.554;2023-06-26T00:32:18;8.20;;;6.38;;
23322;SDS011;11833;52.554;13.554;2023-06-26T00:34:43;7.90;;;6.15;;
23322;SDS011;11833;52.554;13.554;2023-06-26T00:37:11;8.27;;;6.78;;
23322;SDS011;11833;52.554;13.554;2023-06-26T00:39:37;7.35;;;5.93;;
23322;SDS011;11833;52.554;13.554;2023-06-26T00:42:05;7.53;;;5.57;;
23322;SDS011;11833;52.554;13.554;2023-06-26T00:44:31;7.68;;;6.45;;
23322;SDS011;11833;52.554;13.554;2023-06-26T00:46:57;7.78;;;7.00;;
23322;SDS011;11833;52.554;13.554;2023-06-26T00:49:23;7.70;;;6.13;;
23322;SDS011;11833;52.554;13.554;2023-06-26T00:51:49;7.03;;;6.15;;
23322;SDS011;11833;52.554;13.554;2023-06-26T00:54:15;8.32;;;6.32;;
23322;SDS011;11833;52.554;13.554;2023-06-26T00:56:45;9.63;;;7.13;;
23322;SDS011;11833;52.554;13.554;2023-06-26T00:59:12;10.25;;;6.10;;
23322;SDS011;11833;52.554;13.554;2023-06-26T01:01:38;6.28;;;5.68;;
23322;SDS011;11833;52.554;13.554;2023-06-26T01:04:04;6.53;;;5.55;;
23322;SDS011;11833;52.554;13.554;2023-06-26T01:06:30;8.50;;;6.28;;
23322;SDS011;11833;52.554;13.554;2023-06-26T01:09:00;8.27;;;7.05;;
23322;SDS011;11833;52.554;13.554;2023-06-26T01:11:27;8.38;;;6.28;;
23322;SDS011;11833;52.554;13.554;2023-06-26T01:13:53;8.75;;;7.38;;
23322;SDS011;11833;52.554;13.554;2023-06-26T01:16:21;8.55;;;6.68;;
23322;SDS011;11833;52.554;13.554;2023-06-26T01:18:49;7.32;;;6.55;;
23322;SDS011;11833;52.554;13.554;2023-06-26T01:21:15;13.98;;;7.53;;
23322;SDS011;11833;52.554;13.554;2023-06-26T01:26:31;7.80;;;6.78;;
23322;SDS011;11833;52.554;13.554;2023-06-26T01:29:06;7.53;;;6.68;;
23322;SDS011;11833;52.554;13.554;2023-06-26T01:31:32;7.30;;;6.57;;
23322;SDS011;11833;52.554;13.554;2023-06-26T01:33:59;7.68;;;6.88;;
23322;SDS011;11833;52.554;13.554;2023-06-26T01:36:26;7.35;;;6.65;;
23322;SDS011;11833;52.554;13.554;2023-06-26T01:38:52;10.10;;;6.70;;
23322;SDS011;11833;52.554;13.554;2023-06-26T01:41:19;7.53;;;6.38;;
23322;SDS011;11833;52.554;13.554;2023-06-26T01:46:20;9.73;;;7.22;;
23322;SDS011;11833;52.554;13.554;2023-06-26T01:49:12;7.95;;;7.03;;
23322;SDS011;11833;52.554;13.554;2023-06-26T01:58:01;8.48;;;6.95;;
23322;SDS011;11833;52.554;13.554;2023-06-26T02:00:28;7.38;;;6.68;;
23322;SDS011;11833;52.554;13.554;2023-06-26T02:02:54;7.18;;;6.47;;
23322;SDS011;11833;52.554;13.554;2023-06-26T02:05:20;11.15;;;6.97;;
23322;SDS011;11833;52.554;13.554;2023-06-26T02:07:46;8.05;;;7.13;;
23322;SDS011;11833;52.554;13.554;2023-06-26T02:10:12;7.50;;;6.75;;
23322;SDS011;11833;52.554;13.554;2023-06-26T02:12:38;8.25;;;7.35;;
23322;SDS011;11833;52.554;13.554;2023-06-26T02:15:04;8.63;;;7.28;;
23322;SDS011;11833;52.554;13.554;2023-06-26T02:17:31;8.02;;;7.20;;
23322;SDS011;11833;52.554;13.554;2023-06-26T02:19:56;8.07;;;7.22;;
23322;SDS011;11833;52.554;13.554;2023-06-26T02:22:22;10.23;;;7.25;;
23322;SDS011;11833;52.554;13.554;2023-06-26T02:24:48;7.20;;;6.43;;
23322;SDS011;11833;52.554;13.554;2023-06-26T02:27:14;9.57;;;7.70;;
23322;SDS011;11833;52.554;13.554;2023-06-26T02:29:40;8.93;;;7.15;;
23322;SDS011;11833;52.554;13.554;2023-06-26T02:32:07;9.38;;;7.82;;
23322;SDS011;11833;52.554;13.554;2023-06-26T02:34:34;7.70;;;6.80;;
23322;SDS011;11833;52.554;13.554;2023-06-26T02:37:00;9.70;;;7.45;;
23322;SDS011;11833;52.554;13.554;2023-06-26T02:39:27;11.13;;;7.78;;
23322;SDS011;11833;52.554;13.554;2023-06-26T02:41:52;7.68;;;6.88;;
23322;SDS011;11833;52.554;13.554;2023-06-26T02:44:18;11.57;;;8.02;;
23322;SDS011;11833;52.554;13.554;2023-06-26T02:46:44;9.75;;;7.00;;
23322;SDS011;11833;52.554;13.554;2023-06-26T02:49:10;10.18;;;8.10;;
23322;SDS011;11833;52.554;13.554;2023-06-26T02:51:35;9.02;;;7.38;;
23322;SDS011;11833;52.554;13.554;2023-06-26T02:54:02;8.10;;;6.57;;
23322;SDS011;11833;52.554;13.554;2023-06-26T02:56:28;8.77;;;6.90;;
23322;SDS011;11833;52.554;13.554;2023-06-26T02:58:57;8.52;;;6.65;;
23322;SDS011;11833;52.554;13.554;2023-06-26T03:01:23;10.00;;;7.72;;
23322;SDS011;11833;52.554;13.554;2023-06-26T03:03:49;8.00;;;6.93;;
23322;SDS011;11833;52.554;13.554;2023-06-26T03:06:15;8.75;;;7.22;;
23322;SDS011;11833;52.554;13.554;2023-06-26T03:08:41;12.32;;;8.07;;
23322;SDS011;11833;52.554;13.554;2023-06-26T03:11:07;8.40;;;7.50;;
23322;SDS011;11833;52.554;13.554;2023-06-26T03:13:34;14.10;;;7.80;;
23322;SDS011;11833;52.554;13.554;2023-06-26T03:16:01;10.98;;;7.82;;
23322;SDS011;11833;52.554;13.554;2023-06-26T03:18:27;10.65;;;7.05;;
23322;SDS011;11833;52.554;13.554;2023-06-26T03:20:55;13.18;;;8.57;;
23322;SDS011;11833;52.554;13.554;2023-06-26T03:23:22;10.60;;;7.50;;
23322;SDS011;11833;52.554;13.554;2023-06-26T03:25:48;10.50;;;8.15;;
23322;SDS011;11833;52.554;13.554;2023-06-26T03:28:14;9.52;;;7.72;;
23322;SDS011;11833;52.554;13.554;2023-06-26T03:30:41;14.25;;;8.55;;
23322;SDS011;11833;52.554;13.554;2023-06-26T03:33:06;7.88;;;7.03;;
23322;SDS011;11833;52.554;13.554;2023-06-26T03:35:32;8.43;;;7.03;;
23322;SDS011;11833;52.554;13.554;2023-06-26T03:37:59;7.72;;;6.80;;
23322;SDS011;11833;52.554;13.554;2023-06-26T03:40:25;10.07;;;8.88;;
23322;SDS011;11833;52.554;13.554;2023-06-26T03:42:51;10.85;;;8.20;;
23322;SDS011;11833;52.554;13.554;2023-06-26T03:45:19;8.55;;;7.65;;
23322;SDS011;11833;52.554;13.554;2023-06-26T03:47:45;8.63;;;7.50;;
23322;SDS011;11833;52.554;13.554;2023-06-26T03:50:17;9.13;;;8.18;;
23322;SDS011;11833;52.554;13.554;2023-06-26T03:52:44;11.23;;;9.10;;
23322;SDS011;11833;52.554;13.554;2023-06-26T03:55:10;11.00;;;8.55;;
23322;SDS011;11833;52.554;13.554;2023-06-26T03:57:36;10.50;;;8.57;;
23322;SDS011;11833;52.554;13.554;2023-06-26T04:00:02;10.10;;;8.02;;
23322;SDS011;11833;52.554;13.554;2023-06-26T04:02:33;10.63;;;8.50;;
23322;SDS011;11833;52.554;13.554;2023-06-26T04:05:00;9.20;;;8.30;;
23322;SDS011;11833;52.554;13.554;2023-06-26T04:07:26;23.40;;;10.05;;
23322;SDS011;11833;52.554;13.554;2023-06-26T04:09:52;10.45;;;8.38;;
23322;SDS011;11833;52.554;13.554;2023-06-26T04:12:17;9.05;;;8.02;;
23322;SDS011;11833;52.554;13.554;2023-06-26T04:14:43;9.93;;;8.82;;
23322;SDS011;11833;52.554;13.554;2023-06-26T04:17:09;10.38;;;7.82;;
23322;SDS011;11833;52.554;13.554;2023-06-26T04:19:35;12.57;;;9.35;;
23322;SDS011;11833;52.554;13.554;2023-06-26T04:22:01;10.50;;;8.85;;
23322;SDS011;11833;52.554;13.554;2023-06-26T04:24:27;16.17;;;10.43;;
23322;SDS011;11833;52.554;13.554;2023-06-26T04:26:53;12.98;;;9.55;;
23322;SDS011;11833;52.554;13.554;2023-06-26T04:29:22;8.38;;;7.50;;
23322;SDS011;11833;52.554;13.554;2023-06-26T04:31:50;11.82;;;9.20;;
23322;SDS011;11833;52.554;13.554;2023-06-26T04:34:17;10.93;;;8.43;;
23322;SDS011;11833;52.554;13.554;2023-06-26T04:36:42;9.45;;;8.48;;
23322;SDS011;11833;52.554;13.554;2023-06-26T04:39:12;10.13;;;9.05;;
23322;SDS011;11833;52.554;13.554;2023-06-26T04:41:40;12.43;;;9.38;;
23322;SDS011;11833;52.554;13.554;2023-06-26T04:44:06;9.90;;;8.90;;
23322;SDS011;11833;52.554;13.554;2023-06-26T04:46:31;12.55;;;8.65;;
23322;SDS011;11833;52.554;13.554;2023-06-26T04:48:57;11.18;;;9.32;;
23322;SDS011;11833;52.554;13.554;2023-06-26T04:51:24;9.15;;;8.25;;
23322;SDS011;11833;52.554;13.554;2023-06-26T04:53:52;9.35;;;8.07;;
23322;SDS011;11833;52.554;13.554;2023-06-26T04:56:18;10.68;;;8.75;;
23322;SDS011;11833;52.554;13.554;2023-06-26T04:58:43;12.75;;;8.10;;
23322;SDS011;11833;52.554;13.554;2023-06-26T05:01:09;10.80;;;8.85;;
23322;SDS011;11833;52.554;13.554;2023-06-26T05:03:35;7.82;;;7.05;;
23322;SDS011;11833;52.554;13.554;2023-06-26T05:06:01;10.35;;;8.48;;
23322;SDS011;11833;52.554;13.554;2023-06-26T05:08:27;11.90;;;8.82;;
23322;SDS011;11833;52.554;13.554;2023-06-26T05:10:53;12.43;;;8.88;;
23322;SDS011;11833;52.554;13.554;2023-06-26T05:13:22;10.90;;;8.50;;
23322;SDS011;11833;52.554;13.554;2023-06-26T05:15:49;9.60;;;7.63;;
23322;SDS011;11833;52.554;13.554;2023-06-26T05:18:15;9.57;;;7.60;;
23322;SDS011;11833;52.554;13.554;2023-06-26T05:20:41;11.77;;;8.05;;
23322;SDS011;11833;52.554;13.554;2023-06-26T05:23:07;9.05;;;7.72;;
23322;SDS011;11833;52.554;13.554;2023-06-26T05:25:35;20.30;;;9.07;;
23322;SDS011;11833;52.554;13.554;2023-06-26T05:28:02;10.88;;;7.13;;
23322;SDS011;11833;52.554;13.554;2023-06-26T05:30:30;8.00;;;6.72;;
23322;SDS011;11833;52.554;13.554;2023-06-26T05:32:59;9.65;;;7.95;;
23322;SDS011;11833;52.554;13.554;2023-06-26T05:35:27;7.68;;;6.88;;
23322;SDS011;11833;52.554;13.554;2023-06-26T05:37:55;9.48;;;7.93;;
23322;SDS011;11833;52.554;13.554;2023-06-26T05:40:22;7.45;;;6.65;;
23322;SDS011;11833;52.554;13.554;2023-06-26T05:42:48;9.18;;;7.57;;
23322;SDS011;11833;52.554;13.554;2023-06-26T05:45:14;8.20;;;7.03;;
23322;SDS011;11833;52.554;13.554;2023-06-26T05:47:41;7.45;;;6.68;;
23322;SDS011;11833;52.554;13.554;2023-06-26T05:50:07;14.63;;;7.43;;
23322;SDS011;11833;52.554;13.554;2023-06-26T05:52:35;7.75;;;6.75;;
23322;SDS011;11833;52.554;13.554;2023-06-26T05:55:02;8.23;;;6.63;;
23322;SDS011;11833;52.554;13.554;2023-06-26T05:57:29;6.75;;;6.05;;
23322;SDS011;11833;52.554;13.554;2023-06-26T05:59:55;6.97;;;6.32;;
23322;SDS011;11833;52.554;13.554;2023-06-26T06:02:22;6.85;;;5.97;;
23322;SDS011;11833;52.554;13.554;2023-06-26T06:04:48;7.35;;;6.03;;
23322;SDS011;11833;52.554;13.554;2023-06-26T06:07:14;7.75;;;6.95;;
23322;SDS011;11833;52.554;13.554;2023-06-26T06:09:40;7.57;;;6.13;;
23322;SDS011;11833;52.554;13.554;2023-06-26T06:12:06;7.22;;;6.53;;
23322;SDS011;11833;52.554;13.554;2023-06-26T06:14:36;7.13;;;6.25;;
23322;SDS011;11833;52.554;13.554;2023-06-26T06:17:01;7.03;;;6.32;;
23322;SDS011;11833;52.554;13.554;2023-06-26T06:19:27;9.15;;;6.55;;
23322;SDS011;11833;52.554;13.554;2023-06-26T06:21:53;7.20;;;6.18;;
23322;SDS011;11833;52.554;13.554;2023-06-26T06:24:19;6.47;;;5.80;;
23322;SDS011;11833;52.554;13.554;2023-06-26T06:26:46;6.90;;;5.32;;
23322;SDS011;11833;52.554;13.554;2023-06-26T06:29:12;7.82;;;5.40;;
23322;SDS011;11833;52.554;13.554;2023-06-26T06:31:37;6.55;;;5.90;;
23322;SDS011;11833;52.554;13.554;2023-06-26T06:34:03;7.68;;;5.80;;
23322;SDS011;11833;52.554;13.554;2023-06-26T06:36:29;7.60;;;6.00;;
23322;SDS011;11833;52.554;13.554;2023-06-26T06:38:55;6.90;;;6.25;;
23322;SDS011;11833;52.554;13.554;2023-06-26T06:41:20;6.03;;;5.05;;
23322;SDS011;11833;52.554;13.554;2023-06-26T06:43:46;8.07;;;7.28;;
23322;SDS011;11833;52.554;13.554;2023-06-26T06:46:12;6.68;;;5.97;;
23322;SDS011;11833;52.554;13.554;2023-06-26T06:48:38;6.13;;;5.40;;
23322;SDS011;11833;52.554;13.554;2023-06-26T06:51:03;7.68;;;6.07;;
23322;SDS011;11833;52.554;13.554;2023-06-26T06:53:30;8.85;;;5.70;;
23322;SDS011;11833;52.554;13.554;2023-06-26T06:55:56;6.43;;;5.82;;
23322;SDS011;11833;52.554;13.554;2023-06-26T06:58:22;8.10;;;7.10;;
23322;SDS011;11833;52.554;13.554;2023-06-26T07:00:48;7.07;;;6.38;;
23322;SDS011;11833;52.554;13.554;2023-06-26T07:03:16;6.20;;;5.57;;
23322;SDS011;11833;52.554;13.554;2023-06-26T07:05:41;7.30;;;6.10;;
23322;SDS011;11833;52.554;13.554;2023-06-26T07:08:07;6.75;;;5.70;;
23322;SDS011;11833;52.554;13.554;2023-06-26T07:10:33;6.63;;;5.45;;
23322;SDS011;11833;52.554;13.554;2023-06-26T07:12:59;8.90;;;6.22;;
23322;SDS011;11833;52.554;13.554;2023-06-26T07:15:25;6.90;;;5.80;;
23322;SDS011;11833;52.554;13.554;2023-06-26T07:17:51;7.10;;;6.30;;
23322;SDS011;11833;52.554;13.554;2023-06-26T07:20:17;8.20;;;5.50;;
23322;SDS011;11833;52.554;13.554;2023-06-26T07:22:43;6.63;;;5.80;;
23322;SDS011;11833;52.554;13.554;2023-06-26T07:25:12;9.57;;;5.63;;
23322;SDS011;11833;52.554;13.554;2023-06-26T07:27:38;6.45;;;5.22;;
23322;SDS011;11833;52.554;13.554;2023-06-26T07:30:05;7.15;;;5.05;;
23322;SDS011;11833;52.554;13.554;2023-06-26T07:32:35;6.70;;;5.88;;
23322;SDS011;11833;52.554;13.554;2023-06-26T07:35:05;7.82;;;5.63;;
23322;SDS011;11833;52.554;13.554;2023-06-26T07:37:31;7.28;;;5.47;;
23322;SDS011;11833;52.554;13.554;2023-06-26T07:39:57;8.40;;;5.43;;
23322;SDS011;11833;52.554;13.554;2023-06-26T07:42:23;9.43;;;5.25;;
23322;SDS011;11833;52.554;13.554;2023-06-26T07:44:49;7.53;;;5.10;;
23322;SDS011;11833;52.554;13.554;2023-06-26T07:47:15;6.60;;;5.15;;
23322;SDS011;11833;52.554;13.554;2023-06-26T07:49:41;5.75;;;5.15;;
23322;SDS011;11833;52.554;13.554;2023-06-26T07:52:06;5.97;;;4.82;;
23322;SDS011;11833;52.554;13.554;2023-06-26T07:54:35;6.35;;;5.38;;
23322;SDS011;11833;52.554;13.554;2023-06-26T07:57:02;7.55;;;4.75;;
23322;SDS011;11833;52.554;13.554;2023-06-26T07:59:32;5.25;;;4.75;;
23322;SDS011;11833;52.554;13.554;2023-06-26T08:01:58;5.53;;;4.82;;
23322;SDS011;11833;52.554;13.554;2023-06-26T08:04:25;5.15;;;4.65;;
23322;SDS011;11833;52.554;13.554;2023-06-26T08:06:54;6.40;;;4.45;;
23322;SDS011;11833;52.554;13.554;2023-06-26T08:09:22;5.22;;;4.68;;
23322;SDS011;11833;52.554;13.554;2023-06-26T08:11:50;5.82;;;4.53;;
23322;SDS011;11833;52.554;13.554;2023-06-26T08:14:16;5.13;;;4.32;;
23322;SDS011;11833;52.554;13.554;2023-06-26T08:16:43;6.93;;;4.57;;
23322;SDS011;11833;52.554;13.554;2023-06-26T08:19:09;5.25;;;4.40;;
23322;SDS011;11833;52.554;13.554;2023-06-26T08:21:36;6.00;;;4.53;;
23322;SDS011;11833;52.554;13.554;2023-06-26T08:24:02;5.20;;;4.70;;
23322;SDS011;11833;52.554;13.554;2023-06-26T08:26:28;4.68;;;3.75;;
23322;SDS011;11833;52.554;13.554;2023-06-26T08:28:54;4.38;;;3.97;;
23322;SDS011;11833;52.554;13.554;2023-06-26T08:31:20;5.95;;;4.28;;
23322;SDS011;11833;52.554;13.554;2023-06-26T08:33:46;4.35;;;3.80;;
23322;SDS011;11833;52.554;13.554;2023-06-26T08:36:12;5.25;;;3.78;;
23322;SDS011;11833;52.554;13.554;2023-06-26T08:38:38;5.97;;;3.30;;
23322;SDS011;11833;52.554;13.554;2023-06-26T08:41:07;4.28;;;3.83;;
23322;SDS011;11833;52.554;13.554;2023-06-26T08:43:33;5.10;;;3.70;;
23322;SDS011;11833;52.554;13.554;2023-06-26T08:46:00;4.50;;;3.17;;
23322;SDS011;11833;52.554;13.554;2023-06-26T08:48:28;4.20;;;3.08;;
23322;SDS011;11833;52.554;13.554;2023-06-26T08:50:57;4.43;;;3.85;;
23322;SDS011;11833;52.554;13.554;2023-06-26T08:53:33;3.78;;;3.40;;
23322;SDS011;11833;52.554;13.554;2023-06-26T08:56:18;6.55;;;3.42;;
23322;SDS011;11833;52.554;13.554;2023-06-26T08:58:47;5.30;;;3.90;;
23322;SDS011;11833;52.554;13.554;2023-06-26T09:01:13;4.40;;;3.60;;
23322;SDS011;11833;52.554;13.554;2023-06-26T09:03:39;5.45;;;3.40;;
23322;SDS011;11833;52.554;13.554;2023-06-26T09:06:06;3.88;;;3.55;;
23322;SDS011;11833;52.554;13.554;2023-06-26T09:08:32;4.43;;;3.47;;
23322;SDS011;11833;52.554;13.554;2023-06-26T09:10:59;5.38;;;3.70;;
23322;SDS011;11833;52.554;13.554;2023-06-26T09:13:25;7.97;;;3.85;;
23322;SDS011;11833;52.554;13.554;2023-06-26T09:15:54;4.90;;;3.70;;
23322;SDS011;11833;52.554;13.554;2023-06-26T09:18:20;4.18;;;3.60;;
23322;SDS011;11833;52.554;13.554;2023-06-26T09:20:47;5.57;;;4.03;;
23322;SDS011;11833;52.554;13.554;2023-06-26T09:23:13;6.85;;;3.60;;
23322;SDS011;11833;52.554;13.554;2023-06-26T09:25:39;3.95;;;3.55;;
23322;SDS011;11833;52.554;13.554;2023-06-26T09:28:06;5.72;;;3.40;;
23322;SDS011;11833;52.554;13.554;2023-06-26T09:30:33;3.97;;;3.58;;
23322;SDS011;11833;52.554;13.554;2023-06-26T09:33:12;5.97;;;3.80;;
23322;SDS011;11833;52.554;13.554;2023-06-26T09:35:44;10.20;;;3.33;;
23322;SDS011;11833;52.554;13.554;2023-06-26T09:38:11;4.10;;;3.78;;
23322;SDS011;11833;52.554;13.554;2023-06-26T09:40:38;4.05;;;3.40;;
23322;SDS011;11833;52.554;13.554;2023-06-26T09:43:05;3.92;;;3.40;;
23322;SDS011;11833;52.554;13.554;2023-06-26T09:45:33;3.42;;;2.95;;
23322;SDS011;11833;52.554;13.554;2023-06-26T09:48:01;4.85;;;3.70;;
23322;SDS011;11833;52.554;13.554;2023-06-26T09:50:28;4.55;;;3.40;;
23322;SDS011;11833;52.554;13.554;2023-06-26T09:52:55;9.60;;;3.25;;
23322;SDS011;11833;52.554;13.554;2023-06-26T09:55:21;4.78;;;3.42;;
23322;SDS011;11833;52.554;13.554;2023-06-26T09:57:48;3.95;;;3.42;;
23322;SDS011;11833;52.554;13.554;2023-06-26T10:00:15;4.03;;;3.47;;
23322;SDS011;11833;52.554;13.554;2023-06-26T10:02:41;4.25;;;3.30;;
23322;SDS011;11833;52.554;13.554;2023-06-26T10:05:07;4.05;;;3.53;;
23322;SDS011;11833;52.554;13.554;2023-06-26T10:07:33;4.55;;;3.58;;
23322;SDS011;11833;52.554;13.554;2023-06-26T10:10:01;3.90;;;3.38;;
23322;SDS011;11833;52.554;13.554;2023-06-26T10:12:29;3.50;;;3.20;;
23322;SDS011;11833;52.554;13.554;2023-06-26T10:14:56;4.53;;;3.60;;
23322;SDS011;11833;52.554;13.554;2023-06-26T10:17:24;3.60;;;3.30;;
23322;SDS011;11833;52.554;13.554;2023-06-26T10:19:54;3.97;;;3.55;;
23322;SDS011;11833;52.554;13.554;2023-06-26T10:22:25;4.38;;;3.97;;
23322;SDS011;11833;52.554;13.554;2023-06-26T10:24:55;4.25;;;3.85;;
23322;SDS011;11833;52.554;13.554;2023-06-26T10:27:23;3.83;;;3.50;;
23322;SDS011;11833;52.554;13.554;2023-06-26T10:29:54;5.20;;;3.38;;
23322;SDS011;11833;52.554;13.554;2023-06-26T10:32:24;4.20;;;3.53;;
23322;SDS011;11833;52.554;13.554;2023-06-26T10:34:52;4.07;;;3.67;;
23322;SDS011;11833;52.554;13.554;2023-06-26T10:37:18;4.63;;;3.33;;
23322;SDS011;11833;52.554;13.554;2023-06-26T10:39:51;4.47;;;3.20;;
23322;SDS011;11833;52.554;13.554;2023-06-26T10:42:20;7.80;;;3.72;;
23322;SDS011;11833;52.554;13.554;2023-06-26T10:45:08;7.10;;;4.20;;
23322;SDS011;11833;52.554;13.554;2023-06-26T10:47:42;5.63;;;3.72;;
23322;SDS011;11833;52.554;13.554;2023-06-26T10:53:07;3.40;;;2.97;;
23322;SDS011;11833;52.554;13.554;2023-06-26T10:55:55;3.10;;;2.90;;
23322;SDS011;11833;52.554;13.554;2023-06-26T11:01:19;3.22;;;2.75;;
23322;SDS011;11833;52.554;13.554;2023-06-26T11:03:48;4.00;;;3.25;;
23322;SDS011;11833;52.554;13.554;2023-06-26T11:06:28;2.83;;;2.53;;
23322;SDS011;11833;52.554;13.554;2023-06-26T11:09:06;3.15;;;2.88;;
23322;SDS011;11833;52.554;13.554;2023-06-26T11:16:56;3.10;;;2.78;;
23322;SDS011;11833;52.554;13.554;2023-06-26T11:19:23;3.28;;;2.97;;
23322;SDS011;11833;52.554;13.554;2023-06-26T11:21:55;6.60;;;3.10;;
23322;SDS011;11833;52.554;13.554;2023-06-26T11:24:25;6.78;;;3.22;;
23322;SDS011;11833;52.554;13.554;2023-06-26T11:26:51;3.47;;;3.13;;
23322;SDS011;11833;52.554;13.554;2023-06-26T11:29:17;4.80;;;3.20;;
23322;SDS011;11833;52.554;13.554;2023-06-26T11:31:43;4.90;;;3.08;;
23322;SDS011;11833;52.554;13.554;2023-06-26T11:34:09;4.65;;;2.95;;
23322;SDS011;11833;52.554;13.554;2023-06-26T11:36:38;3.13;;;2.80;;
23322;SDS011;11833;52.554;13.554;2023-06-26T11:39:07;3.30;;;3.00;;
23322;SDS011;11833;52.554;13.554;2023-06-26T11:41:34;6.88;;;3.47;;
23322;SDS011;11833;52.554;13.554;2023-06-26T11:44:06;4.15;;;3.13;;
23322;SDS011;11833;52.554;13.554;2023-06-26T11:46:35;2.90;;;2.60;;
23322;SDS011;11833;52.554;13.554;2023-06-26T11:49:02;4.35;;;2.92;;
23322;SDS011;11833;52.554;13.554;2023-06-26T11:51:32;5.65;;;2.72;;
23322;SDS011;11833;52.554;13.554;2023-06-26T11:54:00;4.22;;;2.88;;
23322;SDS011;11833;52.554;13.554;2023-06-26T11:56:30;3.75;;;3.30;;
23322;SDS011;11833;52.554;13.554;2023-06-26T12:04:02;4.82;;;3.05;;
23322;SDS011;11833;52.554;13.554;2023-06-26T12:06:34;3.50;;;3.03;;
23322;SDS011;11833;52.554;13.554;2023-06-26T12:09:07;3.50;;;3.20;;
23322;SDS011;11833;52.554;13.554;2023-06-26T12:11:36;5.57;;;3.37;;
23322;SDS011;11833;52.554;13.554;2023-06-26T12:14:08;3.93;;;3.03;;
23322;SDS011;11833;52.554;13.554;2023-06-26T12:16:35;8.00;;;3.67;;
23322;SDS011;11833;52.554;13.554;2023-06-26T12:19:02;3.55;;;3.25;;
23322;SDS011;11833;52.554;13.554;2023-06-26T12:21:43;3.20;;;2.90;;
23322;SDS011;11833;52.554;13.554;2023-06-26T12:24:15;3.67;;;3.38;;
23322;SDS011;11833;52.554;13.554;2023-06-26T12:26:47;3.92;;;3.30;;
23322;SDS011;11833;52.554;13.554;2023-06-26T12:29:33;3.60;;;3.30;;
23322;SDS011;11833;52.554;13.554;2023-06-26T12:31:59;4.55;;;3.28;;
23322;SDS011;11833;52.554;13.554;2023-06-26T12:34:33;3.83;;;3.05;;
23322;SDS011;11833;52.554;13.554;2023-06-26T12:37:02;3.55;;;3.25;;
23322;SDS011;11833;52.554;13.554;2023-06-26T12:39:45;3.95;;;3.55;;
23322;SDS011;11833;52.554;13.554;2023-06-26T12:42:13;3.40;;;3.10;;
23322;SDS011;11833;52.554;13.554;2023-06-26T12:44:43;4.50;;;3.38;;
23322;SDS011;11833;52.554;13.554;2023-06-26T12:47:09;3.70;;;3.40;;
23322;SDS011;11833;52.554;13.554;2023-06-26T12:49:36;3.30;;;2.97;;
23322;SDS011;11833;52.554;13.554;2023-06-26T12:52:07;3.40;;;3.10;;
23322;SDS011;11833;52.554;13.554;2023-06-26T12:54:38;3.97;;;3.58;;
23322;SDS011;11833;52.554;13.554;2023-06-26T12:57:06;3.95;;;3.10;;
23322;SDS011;11833;52.554;13.554;2023-06-26T12:59:33;3.75;;;3.45;;
23322;SDS011;11833;52.554;13.554;2023-06-26T13:02:01;3.70;;;3.40;;
23322;SDS011;11833;52.554;13.554;2023-06-26T13:04:27;4.03;;;3.40;;
23322;SDS011;11833;52.554;13.554;2023-06-26T13:06:53;4.60;;;3.50;;
23322;SDS011;11833;52.554;13.554;2023-06-26T13:09:20;4.32;;;3.67;;
23322;SDS011;11833;52.554;13.554;2023-06-26T13:11:47;3.75;;;3.45;;
23322;SDS011;11833;52.554;13.554;2023-06-26T13:14:13;4.78;;;3.28;;
23322;SDS011;11833;52.554;13.554;2023-06-26T13:16:39;4.35;;;3.70;;
23322;SDS011;11833;52.554;13.554;2023-06-26T13:19:05;4.10;;;3.40;;
23322;SDS011;11833;52.554;13.554;2023-06-26T13:21:31;11.18;;;3.63;;
23322;SDS011;11833;52.554;13.554;2023-06-26T13:23:58;4.95;;;3.75;;
23322;SDS011;11833;52.554;13.554;2023-06-26T13:26:24;5.55;;;3.30;;
23322;SDS011;11833;52.554;13.554;2023-06-26T13:28:51;3.70;;;3.38;;
23322;SDS011;11833;52.554;13.554;2023-06-26T13:31:17;5.93;;;4.25;;
23322;SDS011;11833;52.554;13.554;2023-06-26T13:33:44;5.00;;;4.53;;
23322;SDS011;11833;52.554;13.554;2023-06-26T13:36:13;6.03;;;3.67;;
23322;SDS011;11833;52.554;13.554;2023-06-26T13:38:40;4.10;;;3.70;;
23322;SDS011;11833;52.554;13.554;2023-06-26T13:41:06;4.55;;;3.88;;
23322;SDS011;11833;52.554;13.554;2023-06-26T13:43:32;6.53;;;4.43;;
23322;SDS011;11833;52.554;13.554;2023-06-26T13:45:57;4.47;;;4.07;;
23322;SDS011;11833;52.554;13.554;2023-06-26T13:48:23;4.60;;;4.18;;
23322;SDS011;11833;52.554;13.554;2023-06-26T13:50:49;5.85;;;4.05;;
23322;SDS011;11833;52.554;13.554;2023-06-26T13:53:16;4.38;;;3.53;;
23322;SDS011;11833;52.554;13.554;2023-06-26T13:55:42;4.45;;;4.05;;
23322;SDS011;11833;52.554;13.554;2023-06-26T13:58:08;4.32;;;3.92;;
23322;SDS011;11833;52.554;13.554;2023-06-26T14:00:35;4.97;;;3.92;;
23322;SDS011;11833;52.554;13.554;2023-06-26T14:03:02;6.72;;;4.35;;
23322;SDS011;11833;52.554;13.554;2023-06-26T14:05:32;4.72;;;4.25;;
23322;SDS011;11833;52.554;13.554;2023-06-26T14:07:59;4.65;;;4.20;;
23322;SDS011;11833;52.554;13.554;2023-06-26T14:10:28;4.85;;;4.20;;
23322;SDS011;11833;52.554;13.554;2023-06-26T14:12:53;4.45;;;4.05;;
23322;SDS011;11833;52.554;13.554;2023-06-26T14:15:19;4.85;;;4.13;;
23322;SDS011;11833;52.554;13.554;2023-06-26T14:17:45;6.25;;;4.03;;
23322;SDS011;11833;52.554;13.554;2023-06-26T14:20:12;6.72;;;4.55;;
23322;SDS011;11833;52.554;13.554;2023-06-26T14:22:39;5.93;;;4.70;;
23322;SDS011;11833;52.554;13.554;2023-06-26T14:25:06;4.25;;;3.85;;
23322;SDS011;11833;52.554;13.554;2023-06-26T14:27:34;7.95;;;5.18;;
23322;SDS011;11833;52.554;13.554;2023-06-26T14:30:00;9.07;;;4.22;;
23322;SDS011;11833;52.554;13.554;2023-06-26T14:32:26;5.22;;;3.97;;
23322;SDS011;11833;52.554;13.554;2023-06-26T14:34:52;8.55;;;3.97;;
23322;SDS011;11833;52.554;13.554;2023-06-26T14:37:18;16.75;;;3.75;;
23322;SDS011;11833;52.554;13.554;2023-06-26T14:39:44;0.00;;;0.00;;
23322;SDS011;11833;52.554;13.554;2023-06-26T14:42:10;0.28;;;0.13;;
23322;SDS011;11833;52.554;13.554;2023-06-26T14:44:36;0.13;;;0.13;;
23322;SDS011;11833;52.554;13.554;2023-06-26T14:47:02;10.40;;;4.35;;
23322;SDS011;11833;52.554;13.554;2023-06-26T14:49:28;9.88;;;4.45;;
23322;SDS011;11833;52.554;13.554;2023-06-26T14:51:54;11.88;;;5.07;;
23322;SDS011;11833;52.554;13.554;2023-06-26T14:54:19;10.35;;;4.88;;
23322;SDS011;11833;52.554;13.554;2023-06-26T14:56:45;8.57;;;4.78;;
23322;SDS011;11833;52.554;13.554;2023-06-26T14:59:11;14.20;;;5.97;;
23322;SDS011;11833;52.554;13.554;2023-06-26T15:01:39;6.53;;;5.43;;